WSSL/XSP METAR and TAF weather

Enter ICAO airport designator
Station Type Date Time Source
WSSL METAR 2020/01/17 22:00 UTC NOAA

WSSL 172200Z VRB02KT 9999 FEW016 BKN300 26/24 Q1010


Station Type Date Time Source
WSSL Decoded METAR 2020/01/17 22:00 UTC NOAA

Station name not available
Jan 17, 2020 - 05:00 PM EST / 2020.01.17 2200 UTC
Wind: Variable at 2 MPH (2 KT):0
Visibility: greater than 7 mile(s):0
Sky conditions: mostly cloudy
Temperature: 78 F (26 C)
Dew Point: 75 F (24 C)
Relative Humidity: 88%
Pressure (altimeter): 29.83 in. Hg (1010 hPa)
ob: WSSL 172200Z VRB02KT 9999 FEW016 BKN300 26/24 Q1010
cycle: 22

Station Type Date Time Source
WSSL TAF 2020/01/17 18:00 UTC NOAA

TAF WSSL 171700Z 1718/1900 03009KT 9999 SCT015 BKN020

Example: see airport list